Time;durP1;ratioP1;P1;durP2;ratioP2;P2;SDS_P1;SDS_P2;PMS_P1;PMS_P2;Temp;Humidity;BMP_temperature;BMP_pressure;BME280_temperature;BME280_humidity;BME280_pressure;Samples;Min_cycle;Max_cycle;Signal;HPM_P1;HPM_P2
2023/07/28 00:01:31;;;;;;;3.15;1.95;;;15.00;99.90;;;;;;5092398;28;20085;-34
2023/07/28 00:03:57;;;;;;;4.05;2.17;;;15.00;99.90;;;;;;5066946;28;20147;-35
2023/07/28 00:06:23;;;;;;;2.38;2.10;;;15.00;99.90;;;;;;5070847;28;20037;-33
2023/07/28 00:08:49;;;;;;;2.45;2.22;;;15.10;99.90;;;;;;5056877;28;20075;-33
2023/07/28 00:11:15;;;;;;;2.67;2.35;;;15.20;99.90;;;;;;5064956;28;20056;-32
2023/07/28 00:13:42;;;;;;;2.67;2.25;;;15.20;99.90;;;;;;5056820;28;20028;-34
2023/07/28 00:16:09;;;;;;;2.63;2.40;;;15.20;99.90;;;;;;5052834;28;20029;-36
2023/07/28 00:18:34;;;;;;;6.80;2.50;;;15.20;99.90;;;;;;5056676;28;20425;-33
2023/07/28 00:21:00;;;;;;;2.92;2.30;;;15.20;99.90;;;;;;5066268;28;20033;-33
2023/07/28 00:23:26;;;;;;;3.80;2.60;;;15.10;99.90;;;;;;5065930;28;20039;-33
2023/07/28 00:25:52;;;;;;;3.38;2.15;;;15.10;99.90;;;;;;5067009;28;20033;-33
2023/07/28 00:28:17;;;;;;;2.78;2.13;;;15.10;99.90;;;;;;5056057;28;20553;-33
2023/07/28 00:30:43;;;;;;;2.47;2.00;;;15.10;99.90;;;;;;5059030;28;20709;-36
2023/07/28 00:33:09;;;;;;;2.30;2.10;;;15.10;99.90;;;;;;5051242;28;20024;-33
2023/07/28 00:35:34;;;;;;;4.00;2.00;;;15.10;99.90;;;;;;5051634;28;20056;-32
2023/07/28 00:38:00;;;;;;;6.22;2.33;;;15.10;99.90;;;;;;5052034;28;20032;-35
2023/07/28 00:40:25;;;;;;;2.10;2.00;;;15.10;99.90;;;;;;5050737;28;20032;-34
2023/07/28 00:42:51;;;;;;;4.68;2.65;;;15.00;99.90;;;;;;5059258;28;20032;-35
2023/07/28 00:45:17;;;;;;;2.75;2.35;;;14.90;99.90;;;;;;5069524;28;20678;-32
2023/07/28 00:47:43;;;;;;;4.80;2.10;;;14.80;99.90;;;;;;5066158;28;20095;-34
2023/07/28 00:50:10;;;;;;;3.10;2.20;;;14.80;99.90;;;;;;5063171;28;20048;-33
2023/07/28 00:52:36;;;;;;;2.30;2.10;;;14.70;99.90;;;;;;5065883;28;20033;-32
2023/07/28 00:55:02;;;;;;;5.22;2.17;;;14.70;99.90;;;;;;5066242;28;20044;-33
2023/07/28 00:57:27;;;;;;;3.13;2.20;;;14.80;99.90;;;;;;5068436;28;20091;-34
2023/07/28 00:59:53;;;;;;;4.35;2.47;;;14.70;99.90;;;;;;5068092;28;20614;-32
2023/07/28 01:02:20;;;;;;;2.83;2.30;;;14.70;99.90;;;;;;5066336;28;20135;-40
2023/07/28 01:04:47;;;;;;;2.10;1.90;;;14.70;99.90;;;;;;5063365;28;20036;-41
2023/07/28 01:07:50;;;;;;;3.80;2.05;;;14.70;99.90;;;;;;5065819;28;20047;-41
2023/07/28 01:10:28;;;;;;;3.03;2.15;;;14.70;99.90;;;;;;5017890;28;20704;-41
2023/07/28 01:12:53;;;;;;;2.13;1.92;;;14.60;99.90;;;;;;5063787;28;20523;-41
2023/07/28 01:15:19;;;;;;;2.80;1.80;;;14.70;99.90;;;;;;5067872;28;20162;-38
2023/07/28 01:17:45;;;;;;;2.40;2.20;;;14.70;99.90;;;;;;5061535;28;20079;-40
2023/07/28 01:20:11;;;;;;;4.05;2.95;;;14.60;99.90;;;;;;5068145;28;20025;-37
2023/07/28 01:23:05;;;;;;;2.65;2.25;;;14.60;99.90;;;;;;5058839;28;20082;-40
2023/07/28 01:25:53;;;;;;;2.47;2.17;;;14.50;99.90;;;;;;5065233;28;20043;-39
2023/07/28 01:28:19;;;;;;;3.50;2.20;;;14.50;99.90;;;;;;5064776;28;20036;-37
2023/07/28 01:30:45;;;;;;;3.65;2.28;;;14.50;99.90;;;;;;5062598;28;20040;-41
2023/07/28 01:35:58;;;;;;;2.83;2.47;;;14.40;99.90;;;;;;4992911;23;20051;-36
2023/07/28 01:38:23;;;;;;;4.13;2.30;;;14.40;99.90;;;;;;4983521;28;20109;-36
2023/07/28 01:40:49;;;;;;;3.67;2.30;;;14.30;99.90;;;;;;4993366;23;20406;-80
2023/07/28 01:43:15;;;;;;;2.10;1.90;;;14.30;99.90;;;;;;4973823;28;20033;-80
2023/07/28 01:45:41;;;;;;;5.03;2.20;;;14.30;99.90;;;;;;4973890;28;20027;-80
2023/07/28 01:48:09;;;;;;;2.20;2.00;;;14.20;99.90;;;;;;4969658;28;20088;-80
2023/07/28 01:50:35;;;;;;;3.15;2.30;;;14.20;99.90;;;;;;4973163;28;20023;-81
2023/07/28 01:53:00;;;;;;;3.85;2.40;;;14.10;99.90;;;;;;4983379;28;20045;-81
2023/07/28 01:55:27;;;;;;;4.72;2.10;;;14.10;99.90;;;;;;4973991;28;20039;-80
2023/07/28 01:57:57;;;;;;;2.13;1.90;;;13.90;99.90;;;;;;4971826;28;20043;-80
2023/07/28 02:00:23;;;;;;;2.30;1.80;;;13.90;99.90;;;;;;4970105;28;20616;-80
2023/07/28 02:02:49;;;;;;;1.90;1.80;;;13.80;99.90;;;;;;4989233;28;20046;-81
2023/07/28 02:05:15;;;;;;;3.03;2.72;;;13.80;99.90;;;;;;4988516;28;21523;-80
2023/07/28 02:07:41;;;;;;;3.35;2.50;;;13.80;99.90;;;;;;4991327;28;20109;-80
2023/07/28 02:10:07;;;;;;;2.75;2.20;;;13.80;99.90;;;;;;4991633;28;20036;-80
2023/07/28 02:12:32;;;;;;;3.40;2.65;;;13.80;99.90;;;;;;4991256;28;20042;-81
2023/07/28 02:14:58;;;;;;;2.88;2.53;;;13.80;99.90;;;;;;4990095;28;20042;-80
2023/07/28 02:17:23;;;;;;;2.97;2.47;;;13.80;99.90;;;;;;4988865;28;20061;-81
2023/07/28 02:19:49;;;;;;;2.60;2.40;;;13.70;99.90;;;;;;4987104;28;20101;-80
2023/07/28 02:22:14;;;;;;;3.78;2.33;;;13.70;99.90;;;;;;4989411;28;20042;-80
2023/07/28 02:24:40;;;;;;;4.10;2.15;;;13.50;99.90;;;;;;4987417;28;20034;-79
2023/07/28 02:27:06;;;;;;;4.97;2.60;;;13.40;99.90;;;;;;4988825;28;20039;-80
2023/07/28 02:29:31;;;;;;;3.13;2.30;;;13.30;99.90;;;;;;4992325;28;20088;-80
2023/07/28 02:31:57;;;;;;;2.85;2.58;;;13.20;99.90;;;;;;4995945;28;20054;-80
2023/07/28 02:34:22;;;;;;;3.55;2.25;;;13.20;99.90;;;;;;4998898;28;20018;-79
2023/07/28 02:36:48;;;;;;;4.57;2.30;;;13.00;99.90;;;;;;4996804;28;20042;-80
2023/07/28 02:39:14;;;;;;;3.13;2.55;;;13.00;99.90;;;;;;4997412;28;20091;-79
2023/07/28 02:41:39;;;;;;;4.18;2.50;;;13.00;99.90;;;;;;5000589;28;20413;-79
2023/07/28 02:44:05;;;;;;;2.95;2.35;;;13.00;99.90;;;;;;4997529;28;20062;-79
2023/07/28 02:46:30;;;;;;;3.58;2.40;;;13.10;99.90;;;;;;4999917;28;20042;-79
2023/07/28 02:48:56;;;;;;;4.22;2.70;;;13.10;99.90;;;;;;4999806;28;20557;-80
2023/07/28 02:51:21;;;;;;;3.28;2.47;;;13.20;99.90;;;;;;5007882;28;20038;-79
2023/07/28 02:53:47;;;;;;;2.70;2.50;;;13.20;99.90;;;;;;5001483;28;20034;-80
2023/07/28 02:56:13;;;;;;;3.20;2.55;;;13.20;99.90;;;;;;5003046;28;20636;-80
2023/07/28 02:58:38;;;;;;;3.00;2.60;;;13.20;99.90;;;;;;5002399;28;20041;-80
2023/07/28 03:01:04;;;;;;;3.70;2.78;;;13.20;99.90;;;;;;4998822;28;20038;-79
2023/07/28 03:03:30;;;;;;;4.10;2.70;;;13.30;99.90;;;;;;5025859;28;20073;-79
2023/07/28 03:05:56;;;;;;;3.35;2.20;;;13.30;99.90;;;;;;5000721;28;20038;-79
2023/07/28 03:08:22;;;;;;;3.00;2.33;;;13.30;99.90;;;;;;5001289;28;20041;-80
2023/07/28 03:10:47;;;;;;;2.47;2.17;;;13.30;99.90;;;;;;5002227;28;20118;-79
2023/07/28 03:13:13;;;;;;;5.03;2.50;;;13.20;99.90;;;;;;4997546;28;20030;-79
2023/07/28 03:15:38;;;;;;;2.65;2.25;;;13.00;99.90;;;;;;5001024;28;20030;-80
2023/07/28 03:18:04;;;;;;;3.35;2.25;;;12.90;99.90;;;;;;5001891;28;20030;-79
2023/07/28 03:20:30;;;;;;;2.78;2.33;;;12.80;99.90;;;;;;5000232;28;20100;-80
2023/07/28 03:22:56;;;;;;;3.38;2.28;;;12.90;99.90;;;;;;4998292;28;20034;-80
2023/07/28 03:25:21;;;;;;;4.20;2.42;;;12.90;99.90;;;;;;4994587;28;20064;-82
2023/07/28 03:27:47;;;;;;;3.83;2.58;;;12.90;99.90;;;;;;4993236;28;20850;-80
2023/07/28 03:30:14;;;;;;;3.55;2.80;;;13.00;99.90;;;;;;5001311;28;20041;-79
2023/07/28 03:32:39;;;;;;;3.00;2.40;;;13.00;99.90;;;;;;4996210;28;20794;-80
2023/07/28 03:35:06;;;;;;;4.25;2.67;;;13.00;99.90;;;;;;4994543;28;20042;-79
2023/07/28 03:37:32;;;;;;;3.60;2.60;;;13.00;99.90;;;;;;4999010;28;20085;-79
2023/07/28 03:39:58;;;;;;;6.05;2.90;;;13.00;99.90;;;;;;5001113;28;20038;-79
2023/07/28 03:42:24;;;;;;;4.43;2.65;;;13.00;99.90;;;;;;4993421;28;20058;-79
2023/07/28 03:44:50;;;;;;;3.15;2.60;;;13.10;99.90;;;;;;4997547;28;20033;-80
2023/07/28 03:47:15;;;;;;;2.75;2.50;;;13.10;99.90;;;;;;4997657;28;20022;-81
2023/07/28 03:49:41;;;;;;;2.55;2.35;;;13.20;99.90;;;;;;4996629;28;20053;-79
2023/07/28 03:52:06;;;;;;;4.82;2.65;;;13.10;99.90;;;;;;4997981;28;20062;-80
2023/07/28 03:54:32;;;;;;;5.20;3.00;;;13.20;99.90;;;;;;4992541;28;20060;-80
2023/07/28 03:56:58;;;;;;;4.03;2.67;;;13.20;99.90;;;;;;4995483;28;20489;-79
2023/07/28 03:59:23;;;;;;;3.42;2.70;;;13.30;99.90;;;;;;4996523;28;20101;-79
2023/07/28 04:01:49;;;;;;;2.88;2.42;;;13.30;99.90;;;;;;4998269;28;20050;-81
2023/07/28 04:04:15;;;;;;;2.60;2.40;;;13.30;99.90;;;;;;4993168;28;20085;-78
2023/07/28 04:06:50;;;;;;;4.82;2.83;;;13.30;99.90;;;;;;4999531;28;20053;-79
2023/07/28 04:09:16;;;;;;;3.50;2.28;;;13.30;99.90;;;;;;4996440;28;20450;-79
2023/07/28 04:11:42;;;;;;;4.10;2.42;;;13.30;99.90;;;;;;4997494;28;20026;-79
2023/07/28 04:14:08;;;;;;;4.30;2.40;;;13.10;99.90;;;;;;4996119;28;20041;-80
2023/07/28 04:16:34;;;;;;;2.90;2.53;;;13.10;99.90;;;;;;4998570;28;20070;-86
2023/07/28 04:19:00;;;;;;;3.13;2.55;;;13.20;99.90;;;;;;4994698;28;20086;-81
2023/07/28 04:21:25;;;;;;;3.13;2.00;;;13.30;99.90;;;;;;4996437;28;20029;-78
2023/07/28 04:23:51;;;;;;;3.15;2.50;;;13.30;99.90;;;;;;4996230;28;20062;-80
2023/07/28 04:26:17;;;;;;;2.47;2.28;;;13.30;99.90;;;;;;4999118;28;20038;-79
2023/07/28 04:28:43;;;;;;;2.90;2.60;;;13.30;99.90;;;;;;4995880;28;20543;-80
2023/07/28 04:31:10;;;;;;;2.55;2.30;;;13.20;99.90;;;;;;4998434;28;20035;-79
2023/07/28 04:33:36;;;;;;;6.47;2.58;;;13.20;99.90;;;;;;4994452;28;20359;-79
2023/07/28 04:36:04;;;;;;;5.07;2.72;;;13.30;99.90;;;;;;4997944;28;20038;-80
2023/07/28 04:38:30;;;;;;;4.13;2.50;;;13.30;99.90;;;;;;4998815;28;20041;-80
2023/07/28 04:40:56;;;;;;;3.53;2.45;;;13.30;99.90;;;;;;4998884;28;20932;-79
2023/07/28 04:43:21;;;;;;;4.25;2.55;;;13.40;99.90;;;;;;4997268;28;20082;-79
2023/07/28 04:45:47;;;;;;;3.10;2.22;;;13.40;99.90;;;;;;4996490;28;20038;-79
2023/07/28 04:48:13;;;;;;;3.10;2.53;;;13.50;99.90;;;;;;4996651;28;20030;-80
2023/07/28 04:50:38;;;;;;;3.97;2.28;;;13.50;99.90;;;;;;4996901;28;20109;-80
2023/07/28 04:53:04;;;;;;;4.07;2.85;;;13.60;99.90;;;;;;4996633;28;20030;-80
2023/07/28 04:55:30;;;;;;;4.45;2.65;;;13.70;99.90;;;;;;4992292;28;20101;-80
2023/07/28 04:57:55;;;;;;;6.03;3.17;;;13.80;99.90;;;;;;4998988;28;20038;-82
2023/07/28 05:00:21;;;;;;;3.22;2.85;;;13.90;99.90;;;;;;4996222;28;20045;-80
2023/07/28 05:02:48;;;;;;;2.60;2.40;;;13.90;99.90;;;;;;5000165;28;20042;-80
2023/07/28 05:05:13;;;;;;;3.53;2.85;;;13.90;99.90;;;;;;4995943;28;20042;-81
2023/07/28 05:07:39;;;;;;;3.50;2.53;;;14.00;99.90;;;;;;4997098;28;20199;-84
2023/07/28 05:10:05;;;;;;;4.68;3.13;;;14.20;99.90;;;;;;4998274;28;20041;-83
2023/07/28 05:12:31;;;;;;;4.20;3.30;;;14.30;99.90;;;;;;4997467;28;20030;-80
2023/07/28 05:14:56;;;;;;;4.93;3.60;;;14.50;99.90;;;;;;5000489;28;20053;-80
2023/07/28 05:17:22;;;;;;;5.03;3.13;;;14.70;99.90;;;;;;4999719;28;20054;-80
2023/07/28 05:19:50;;;;;;;4.43;3.17;;;14.70;99.90;;;;;;4997797;28;20030;-81
2023/07/28 05:22:16;;;;;;;5.45;3.35;;;14.80;99.90;;;;;;4997233;28;20034;-80
2023/07/28 05:24:43;;;;;;;3.88;3.42;;;14.90;99.90;;;;;;4998580;28;20030;-80
2023/07/28 05:27:12;;;;;;;5.38;3.78;;;15.00;99.90;;;;;;4997686;28;20107;-81
2023/07/28 05:29:40;;;;;;;6.45;4.28;;;15.00;99.90;;;;;;4999974;28;20057;-80
2023/07/28 05:32:09;;;;;;;;;;;15.10;99.90;;;;;;4995296;28;20070;-79
2023/07/28 05:34:35;;;;;;;3.67;3.17;;;15.10;99.90;;;;;;4996660;28;19989;-80
2023/07/28 05:37:01;;;;;;;4.30;3.60;;;15.10;99.90;;;;;;4995191;28;20022;-80
2023/07/28 05:39:26;;;;;;;6.40;3.80;;;15.20;99.90;;;;;;5001354;28;20524;-80
2023/07/28 05:41:52;;;;;;;5.97;3.65;;;15.20;99.90;;;;;;4998960;28;20050;-79
2023/07/28 05:44:18;;;;;;;4.80;3.70;;;15.30;99.90;;;;;;5026048;28;20038;-81
2023/07/28 05:46:45;;;;;;;8.45;3.70;;;15.30;99.90;;;;;;4997660;28;20036;-80
2023/07/28 05:49:11;;;;;;;5.68;3.33;;;15.50;99.90;;;;;;4993558;28;20474;-80
2023/07/28 05:51:36;;;;;;;3.55;3.17;;;15.70;99.90;;;;;;4996643;28;20026;-80
2023/07/28 05:54:02;;;;;;;6.05;3.60;;;15.90;99.90;;;;;;4996658;28;20030;-81
2023/07/28 05:56:30;;;;;;;4.38;3.38;;;16.10;99.90;;;;;;4997183;28;20045;-80
2023/07/28 05:58:57;;;;;;;;;;;16.30;99.90;;;;;;4995150;28;20056;-80
2023/07/28 06:01:22;;;;;;;3.17;2.85;;;16.50;99.90;;;;;;4995716;28;19918;-78
2023/07/28 06:03:48;;;;;;;5.13;3.53;;;16.60;99.90;;;;;;4993458;28;20026;-79
2023/07/28 06:06:23;;;;;;;3.97;3.50;;;16.80;99.90;;;;;;4991630;28;20042;-79
2023/07/28 06:08:48;;;;;;;3.92;3.10;;;17.10;99.90;;;;;;4994149;28;20052;-79
2023/07/28 06:11:14;;;;;;;4.03;3.00;;;17.30;99.90;;;;;;4998068;28;20117;-79
2023/07/28 06:14:09;;;;;;;4.22;3.38;;;17.50;99.90;;;;;;4996257;28;20037;-79
2023/07/28 06:16:45;;;;;;;3.20;2.90;;;17.60;99.90;;;;;;4999549;28;20046;-79
2023/07/28 06:19:23;;;;;;;5.57;2.70;;;17.80;99.90;;;;;;4996277;28;20038;-79
2023/07/28 06:21:52;;;;;;;;;;;18.00;99.90;;;;;;5000179;28;20084;-79
2023/07/28 06:24:21;;;;;;;4.47;2.92;;;18.20;99.90;;;;;;4995580;28;19913;-79
2023/07/28 06:26:47;;;;;;;3.58;2.90;;;18.30;99.90;;;;;;4997728;28;20214;-78
2023/07/28 06:29:13;;;;;;;3.35;2.50;;;18.50;99.90;;;;;;4996626;28;20089;-80
2023/07/28 06:31:42;;;;;;;4.57;3.10;;;18.70;99.90;;;;;;4995619;28;20034;-79
2023/07/28 06:34:07;;;;;;;2.33;2.10;;;19.00;99.90;;;;;;4997672;28;20033;-78
2023/07/28 06:36:33;;;;;;;2.95;2.30;;;19.30;99.90;;;;;;4995790;28;20027;-78
2023/07/28 06:38:59;;;;;;;2.83;2.15;;;19.40;99.90;;;;;;4992646;28;20076;-79
2023/07/28 06:41:25;;;;;;;2.60;2.35;;;19.50;99.90;;;;;;5026294;28;20104;-79
2023/07/28 06:43:50;;;;;;;4.82;2.83;;;19.50;99.90;;;;;;4994705;28;20150;-79
2023/07/28 06:46:16;;;;;;;3.47;2.50;;;19.50;99.90;;;;;;4998618;28;20038;-79
2023/07/28 06:48:42;;;;;;;2.58;2.22;;;19.40;99.90;;;;;;4994123;28;20057;-80
2023/07/28 06:51:07;;;;;;;2.83;2.42;;;19.50;99.90;;;;;;4997389;28;20052;-79
2023/07/28 06:53:36;;;;;;;4.07;2.35;;;19.40;99.90;;;;;;4998170;28;20030;-79
2023/07/28 06:56:02;;;;;;;2.80;2.33;;;19.40;99.90;;;;;;4999718;28;20261;-79
2023/07/28 06:58:28;;;;;;;2.50;2.30;;;19.60;99.90;;;;;;4996199;28;20069;-80
2023/07/28 07:00:55;;;;;;;2.55;2.03;;;19.70;99.90;;;;;;4993493;28;20038;-80
2023/07/28 07:03:21;;;;;;;2.97;2.20;;;19.80;99.90;;;;;;4995898;28;20018;-80
2023/07/28 07:05:47;;;;;;;2.50;2.25;;;19.70;99.90;;;;;;4996526;28;20477;-79
2023/07/28 07:08:12;;;;;;;3.38;2.28;;;19.80;99.90;;;;;;4995767;28;20046;-83
2023/07/28 07:10:38;;;;;;;3.15;2.53;;;19.70;99.90;;;;;;4998165;28;20034;-83
2023/07/28 07:13:04;;;;;;;4.22;2.38;;;19.80;99.90;;;;;;4993440;28;20022;-81
2023/07/28 07:15:29;;;;;;;3.28;2.30;;;19.90;99.90;;;;;;4995133;28;20044;-81
2023/07/28 07:17:55;;;;;;;3.88;2.35;;;19.90;99.90;;;;;;4992459;28;20045;-80
2023/07/28 07:20:21;;;;;;;2.55;1.90;;;19.90;99.90;;;;;;4993904;28;20877;-81
2023/07/28 07:22:47;;;;;;;3.13;2.50;;;19.90;99.90;;;;;;4994406;28;20367;-80
2023/07/28 07:25:13;;;;;;;3.42;2.42;;;19.80;99.90;;;;;;5012886;28;20053;-82
2023/07/28 07:27:39;;;;;;;2.70;2.15;;;19.80;99.90;;;;;;5023567;28;20074;-80
2023/07/28 07:30:05;;;;;;;3.72;2.30;;;19.90;99.90;;;;;;4998066;28;20556;-81
2023/07/28 07:32:32;;;;;;;3.78;2.17;;;20.20;99.90;;;;;;4998821;28;20542;-81
2023/07/28 07:34:58;;;;;;;2.78;2.38;;;20.50;99.90;;;;;;5014847;28;20542;-80
2023/07/28 07:37:24;;;;;;;4.65;2.40;;;20.80;99.90;;;;;;4999359;28;20038;-81
2023/07/28 07:39:50;;;;;;;4.43;2.35;;;21.00;99.90;;;;;;4997571;28;20081;-80
2023/07/28 07:42:15;;;;;;;3.30;2.20;;;21.10;99.90;;;;;;5029740;28;20534;-81
2023/07/28 07:44:41;;;;;;;4.70;2.50;;;21.00;99.90;;;;;;4997082;28;20033;-79
2023/07/28 07:47:14;;;;;;;3.08;2.38;;;21.00;99.90;;;;;;4996650;28;20060;-80
2023/07/28 07:49:40;;;;;;;3.65;2.15;;;20.90;99.90;;;;;;4996796;28;20112;-81
2023/07/28 07:52:10;;;;;;;3.65;2.08;;;21.00;99.90;;;;;;4996161;28;20442;-81
2023/07/28 07:54:36;;;;;;;2.50;2.28;;;21.00;99.90;;;;;;4997103;28;20015;-80
2023/07/28 07:57:02;;;;;;;6.72;2.40;;;21.00;99.90;;;;;;4999569;28;20061;-81
2023/07/28 07:59:30;;;;;;;3.03;2.20;;;21.10;99.90;;;;;;4999799;28;20620;-81
2023/07/28 08:01:56;;;;;;;;;;;21.20;99.90;;;;;;4998309;28;20093;-82
2023/07/28 08:04:21;;;;;;;4.63;2.28;;;21.10;99.90;;;;;;4998647;28;19933;-81
2023/07/28 08:06:47;;;;;;;2.47;2.28;;;21.10;99.90;;;;;;4998408;28;20041;-82
2023/07/28 08:09:13;;;;;;;2.63;2.00;;;21.00;99.90;;;;;;4994846;28;20068;-81
2023/07/28 08:11:39;;;;;;;3.80;2.13;;;20.90;99.90;;;;;;4998366;28;20057;-81
2023/07/28 08:14:05;;;;;;;3.63;2.35;;;20.90;99.90;;;;;;4997132;28;20073;-81
2023/07/28 08:16:31;;;;;;;3.00;2.38;;;20.90;99.90;;;;;;4995563;28;20031;-80
2023/07/28 08:18:56;;;;;;;2.38;2.17;;;21.00;99.90;;;;;;4997517;28;20136;-80
2023/07/28 08:21:22;;;;;;;2.38;2.17;;;20.90;99.90;;;;;;5001145;28;20034;-81
2023/07/28 08:23:48;;;;;;;2.47;2.15;;;20.90;99.90;;;;;;4998500;28;20117;-81
2023/07/28 08:26:14;;;;;;;2.72;2.10;;;21.10;99.90;;;;;;4999544;28;20037;-81
2023/07/28 08:28:40;;;;;;;4.18;2.20;;;21.30;99.90;;;;;;4996237;28;20046;-81
2023/07/28 08:31:08;;;;;;;2.28;2.03;;;21.70;99.90;;;;;;4990674;28;20049;-81
2023/07/28 08:33:34;;;;;;;2.47;1.88;;;22.10;99.90;;;;;;4998258;28;20034;-81
2023/07/28 08:36:00;;;;;;;2.30;2.10;;;22.30;99.90;;;;;;4994986;28;20038;-81
2023/07/28 08:38:25;;;;;;;4.03;2.10;;;22.30;99.90;;;;;;4998658;28;20053;-82
2023/07/28 08:40:51;;;;;;;2.53;2.10;;;22.20;99.90;;;;;;4999454;28;20458;-81
2023/07/28 08:43:16;;;;;;;2.97;2.30;;;22.20;99.90;;;;;;4999377;28;20037;-81
2023/07/28 08:45:42;;;;;;;4.90;2.03;;;22.20;99.90;;;;;;5001378;28;20014;-81
2023/07/28 08:48:08;;;;;;;2.40;1.90;;;22.30;99.90;;;;;;5000876;28;20049;-82
2023/07/28 08:50:33;;;;;;;6.93;2.30;;;22.70;99.90;;;;;;4998872;28;20041;-81
2023/07/28 08:52:59;;;;;;;3.05;2.13;;;22.70;99.90;;;;;;5000282;28;20031;-82
2023/07/28 08:55:25;;;;;;;2.40;2.10;;;22.50;99.90;;;;;;4999247;28;20030;-82
2023/07/28 08:57:51;;;;;;;2.17;1.73;;;22.70;99.90;;;;;;5015605;28;20049;-80
2023/07/28 09:00:17;;;;;;;4.03;2.10;;;22.80;99.90;;;;;;4999719;28;20027;-80
2023/07/28 09:02:43;;;;;;;2.60;1.98;;;23.20;99.90;;;;;;5000103;28;20513;-81
2023/07/28 09:05:19;;;;;;;2.88;2.03;;;23.30;99.90;;;;;;4995895;28;20045;-80
2023/07/28 09:07:45;;;;;;;2.22;1.77;;;23.40;99.90;;;;;;4995882;28;20097;-81
2023/07/28 09:10:11;;;;;;;2.40;2.00;;;23.40;99.90;;;;;;4993493;28;20558;-81
2023/07/28 09:12:48;;;;;;;2.30;2.10;;;23.50;99.90;;;;;;4995642;28;20030;-81
2023/07/28 09:15:16;;;;;;;3.28;2.25;;;23.50;99.90;;;;;;4997217;28;20038;-80
2023/07/28 09:17:45;;;;;;;4.03;2.30;;;23.50;99.90;;;;;;4993574;28;20031;-80
2023/07/28 09:20:15;;;;;;;2.70;1.95;;;23.40;99.90;;;;;;4996157;28;20065;-80
2023/07/28 09:22:42;;;;;;;3.22;2.20;;;23.40;99.90;;;;;;4973714;28;20027;-80
2023/07/28 09:25:16;;;;;;;3.10;2.03;;;23.40;99.90;;;;;;5006340;28;20548;-81
2023/07/28 09:27:50;;;;;;;2.47;2.20;;;23.30;99.90;;;;;;5012886;28;20038;-81
2023/07/28 09:30:16;;;;;;;3.88;2.10;;;23.20;99.90;;;;;;4994039;28;20030;-81
2023/07/28 09:32:47;;;;;;;3.70;2.08;;;23.00;99.90;;;;;;4997053;28;20094;-82
2023/07/28 09:35:14;;;;;;;3.47;2.03;;;22.90;99.90;;;;;;4996977;28;20030;-83
2023/07/28 09:37:44;;;;;;;2.22;1.90;;;22.80;99.90;;;;;;4997269;28;20112;-83
2023/07/28 09:40:16;;;;;;;2.88;2.17;;;22.80;99.90;;;;;;4994862;28;20050;-83
2023/07/28 09:42:49;;;;;;;2.15;1.90;;;22.90;99.90;;;;;;4994765;28;20162;-83
2023/07/28 09:45:18;;;;;;;5.25;2.20;;;23.00;99.90;;;;;;4993499;28;20066;-84
2023/07/28 09:47:47;;;;;;;3.97;2.10;;;23.00;99.90;;;;;;4975993;28;20469;-83
2023/07/28 09:50:15;;;;;;;2.83;2.22;;;23.10;99.90;;;;;;4993294;28;20026;-83
2023/07/28 09:52:46;;;;;;;2.88;2.08;;;23.30;99.90;;;;;;4995299;28;20025;-82
2023/07/28 09:55:16;;;;;;;3.75;2.15;;;23.30;99.90;;;;;;4995138;28;20034;-82
2023/07/28 09:57:46;;;;;;;2.97;1.98;;;23.20;99.90;;;;;;4997030;28;20038;-83
2023/07/28 10:00:18;;;;;;;4.13;2.45;;;23.20;99.90;;;;;;4994310;28;20101;-84
2023/07/28 10:02:44;;;;;;;2.42;1.95;;;23.40;99.90;;;;;;4997083;28;20050;-83
2023/07/28 10:05:10;;;;;;;2.78;1.80;;;23.50;99.90;;;;;;4992657;28;20466;-84
2023/07/28 10:07:43;;;;;;;6.20;2.03;;;23.20;99.90;;;;;;4994880;28;20549;-83
2023/07/28 10:10:12;;;;;;;2.17;1.98;;;23.10;99.90;;;;;;4992883;28;20041;-82
2023/07/28 10:13:12;;;;;;;2.00;1.80;;;23.10;99.90;;;;;;4998072;28;20048;-84
2023/07/28 10:15:38;;;;;;;3.97;2.08;;;23.00;99.90;;;;;;4998712;28;20043;-82
2023/07/28 10:18:22;;;;;;;2.88;1.70;;;22.90;99.90;;;;;;5014562;28;20098;-82
2023/07/28 10:20:51;;;;;;;3.67;1.98;;;22.80;99.90;;;;;;4994927;28;20134;-82
2023/07/28 10:23:17;;;;;;;3.15;2.05;;;22.70;99.90;;;;;;4999492;28;20030;-83
2023/07/28 10:25:45;;;;;;;2.83;1.83;;;22.60;99.90;;;;;;5004121;28;20041;-82
2023/07/28 10:28:47;;;;;;;3.85;2.03;;;22.40;99.90;;;;;;4978719;28;20034;-84
2023/07/28 10:31:13;;;;;;;3.35;2.00;;;22.20;99.90;;;;;;4921558;29;20044;-82
2023/07/28 10:33:41;;;;;;;2.67;2.35;;;22.20;99.90;;;;;;4988134;28;20039;-81
2023/07/28 10:36:39;;;;;;;3.17;1.95;;;22.50;99.90;;;;;;4996058;28;20041;-81
2023/07/28 10:39:04;;;;;;;3.15;2.20;;;22.60;99.90;;;;;;4996822;28;20030;-81
2023/07/28 10:41:33;;;;;;;3.80;2.30;;;22.60;99.90;;;;;;4995670;28;20046;-82
2023/07/28 10:43:59;;;;;;;2.35;2.10;;;22.50;99.90;;;;;;4995662;28;20030;-82
2023/07/28 10:46:49;;;;;;;2.38;2.15;;;22.30;99.90;;;;;;4978531;28;20026;-81
2023/07/28 10:49:35;;;;;;;2.95;1.90;;;22.50;99.90;;;;;;4994825;28;20048;-81
2023/07/28 10:52:00;;;;;;;3.55;2.17;;;22.60;99.90;;;;;;4997926;28;20034;-82
2023/07/28 10:54:26;;;;;;;2.97;1.75;;;22.90;99.90;;;;;;4997454;28;20286;-82
2023/07/28 10:57:01;;;;;;;2.65;2.00;;;23.50;99.90;;;;;;4982405;28;20042;-82
2023/07/28 10:59:27;;;;;;;3.10;2.20;;;23.70;99.90;;;;;;4991508;28;20130;-82
2023/07/28 11:01:55;;;;;;;2.08;1.98;;;23.60;99.90;;;;;;4997967;28;20054;-81
2023/07/28 11:04:25;;;;;;;3.67;2.20;;;23.50;99.90;;;;;;4993164;28;20038;-84
2023/07/28 11:06:51;;;;;;;2.45;2.08;;;23.30;99.90;;;;;;4999208;28;20497;-82
2023/07/28 11:09:19;;;;;;;3.50;2.20;;;23.10;99.90;;;;;;4999978;28;20042;-81
2023/07/28 11:11:46;;;;;;;4.43;2.17;;;23.10;99.90;;;;;;4999633;28;20018;-82
2023/07/28 11:14:17;;;;;;;2.53;1.90;;;23.00;99.90;;;;;;4997927;28;20034;-82
2023/07/28 11:16:49;;;;;;;2.60;2.10;;;22.90;99.90;;;;;;4998929;28;20035;-82
2023/07/28 11:19:24;;;;;;;2.78;2.15;;;23.10;99.90;;;;;;4984766;28;20069;-82
2023/07/28 11:21:51;;;;;;;3.67;2.03;;;23.30;99.90;;;;;;4997276;28;20034;-81
2023/07/28 11:24:20;;;;;;;2.77;2.10;;;23.50;99.90;;;;;;5018441;28;20037;-82
2023/07/28 11:26:46;;;;;;;2.67;2.20;;;23.60;99.90;;;;;;4998917;28;20278;-82
2023/07/28 11:29:12;;;;;;;3.47;2.25;;;23.70;99.90;;;;;;5002895;28;20053;-81
2023/07/28 11:31:38;;;;;;;3.20;2.30;;;23.80;99.90;;;;;;5002056;28;20046;-81
2023/07/28 11:34:14;;;;;;;2.20;2.00;;;23.90;99.90;;;;;;5001494;28;20053;-82
2023/07/28 11:36:41;;;;;;;2.00;1.75;;;24.00;99.90;;;;;;5001494;28;20039;-81
2023/07/28 11:39:06;;;;;;;3.03;1.92;;;23.70;99.90;;;;;;4995801;28;20114;-81
2023/07/28 11:41:34;;;;;;;2.42;2.20;;;23.80;99.90;;;;;;5001707;28;20070;-82
2023/07/28 11:44:01;;;;;;;3.15;2.00;;;23.80;99.90;;;;;;5000126;28;20023;-82
2023/07/28 11:46:41;;;;;;;2.95;1.92;;;23.70;99.90;;;;;;5000676;28;20042;-82
2023/07/28 11:49:19;;;;;;;3.70;1.90;;;23.80;99.90;;;;;;5001119;28;20034;-82
2023/07/28 11:51:47;;;;;;;3.13;2.30;;;24.40;99.90;;;;;;4997710;28;20026;-83
2023/07/28 11:54:19;;;;;;;2.42;2.08;;;25.00;99.90;;;;;;5015930;28;20026;-82
2023/07/28 11:56:46;;;;;;;3.47;2.15;;;24.80;99.90;;;;;;5001899;28;20038;-82
2023/07/28 11:59:14;;;;;;;4.07;2.20;;;24.40;99.90;;;;;;4999815;28;20057;-82
2023/07/28 12:01:55;;;;;;;2.53;2.10;;;24.40;99.90;;;;;;4998041;28;20034;-82
2023/07/28 12:04:30;;;;;;;3.05;2.25;;;24.40;99.90;;;;;;4996852;28;20105;-81
2023/07/28 12:07:11;;;;;;;2.58;2.10;;;24.20;99.90;;;;;;4999364;28;20030;-81
2023/07/28 12:09:46;;;;;;;2.90;2.22;;;24.10;99.90;;;;;;4999353;28;20034;-82
2023/07/28 12:12:13;;;;;;;2.40;2.20;;;24.00;99.90;;;;;;5001626;28;20069;-82
2023/07/28 12:14:39;;;;;;;2.33;2.13;;;23.80;99.90;;;;;;4999427;28;20041;-81
2023/07/28 12:17:22;;;;;;;2.90;2.20;;;23.70;99.90;;;;;;5011985;28;20030;-81
2023/07/28 12:20:10;;;;;;;2.63;1.98;;;23.80;99.90;;;;;;5000068;28;20022;-81
2023/07/28 12:22:47;;;;;;;2.42;2.22;;;23.90;99.90;;;;;;5001408;28;20138;-81
2023/07/28 12:25:16;;;;;;;2.37;2.17;;;24.40;99.90;;;;;;5017876;28;20334;-81
2023/07/28 12:27:41;;;;;;;2.40;2.08;;;24.80;99.90;;;;;;5019902;28;20058;-81
2023/07/28 12:30:18;;;;;;;2.20;2.00;;;25.10;99.90;;;;;;5005757;28;20026;-81
2023/07/28 12:32:44;;;;;;;2.83;1.77;;;25.20;99.90;;;;;;5005032;28;20089;-82
2023/07/28 12:35:13;;;;;;;3.53;2.22;;;25.00;99.90;;;;;;4999081;28;20030;-79
2023/07/28 12:37:38;;;;;;;2.88;2.10;;;24.90;99.90;;;;;;5001923;28;20426;-81
2023/07/28 12:40:08;;;;;;;2.15;1.95;;;24.90;99.90;;;;;;5004154;28;20057;-82
2023/07/28 12:42:34;;;;;;;2.92;2.22;;;24.80;99.90;;;;;;5002016;28;20092;-81
2023/07/28 12:45:00;;;;;;;3.15;2.10;;;24.60;99.90;;;;;;4996726;28;20030;-80
2023/07/28 12:47:29;;;;;;;3.47;2.30;;;24.60;99.90;;;;;;4999678;28;20136;-81
2023/07/28 12:49:55;;;;;;;2.45;2.15;;;24.40;99.90;;;;;;5014459;28;20034;-80
2023/07/28 12:52:21;;;;;;;3.55;2.22;;;24.40;99.90;;;;;;5000820;28;20030;-82
2023/07/28 12:54:47;;;;;;;3.25;2.22;;;24.10;99.90;;;;;;5001108;28;20057;-80